Mount Horeb, WI

8:47 PM CDT on August 28, 2015 (GMT -0500)
Garfoot and Mineral Point | | Change Station
CLOSE
Current Station
Personal Weather Station
Location: Mt Horeb, WI
Elevation: 1155 ft
Nearby Weather Stations

Elev 1155 ft 43.06 °N, 89.70 °W | Updated 29 seconds ago

Rain
Rain
62.3 °F
Feels Like 62.3 °F
N
8.0
Wind Variable Wind from ENE
Gusts 10.0 mph

Today
High -- | Low -- °F
--% Chance of Precip.
Yesterday
High -- | Low -- °F
Precip. -- in
6:18 AM 7:40 PM
Waxing Gibbous, 99% visible
Pressure 30.08 in
Visibility 4.0 miles
Clouds Scattered Clouds 1200 ft
Scattered Clouds 4700 ft
Overcast 6500 ft
Dew Point 62 °F
Humidity 98%
Rainfall 0.62 in
Snow Depth Not available.
UV 0 out of 12
Pollen 3.70 out of 12
Air Quality Not available.
Flu Activity Not available.
METAR KC29 290135Z AUTO 12006KT 4SM SCT012 SCT047 OVC065 19/18 A3008 RMK AO1 P0008 T01850180
Pressure 30.08 in
Visibility 4.0 miles
Clouds Scattered Clouds 1200 ft
Scattered Clouds 4700 ft
Overcast 6500 ft
Dew Point 62 °F
Humidity 98%
Rainfall 0.62 in
Snow Depth Not available.
UV 0 out of 12
Pollen 3.70 out of 12
Air Quality Not available.
Flu Activity Not available.
METAR KC29 290135Z AUTO 12006KT 4SM SCT012 SCT047 OVC065 19/18 A3008 RMK AO1 P0008 T01850180

10-Day Weather Forecast

×

Almanac

Astronomy

Aug. 28, 2015 Rise Set
Actual Time
Civil Twilight
Nautical Twilight
Astronomical Twilight
Moon
Length of Visible Light
Length of Day
Tomorrow will be .
, % of the Moon is Illuminated

Today's Extremes

State Highs State Lows

Community

WunderPhotos

Upload Photos

1,850,566 photos uploaded!

WunderBlogs® & News

Nearby

Air Quality

  Air Quality AQ Index Pollutant
Not available.

Snow Depth

Station Depth Elevation

Earthquake Activity

City Distance Mag. Time & Date
Minimum magnitude displayed is 2.5.

Coastal Water Temperatures

Place Temperature

Stations

Nearby Weather Stations

Station Location Temp. Windchill Dew Point Humidity Wind Precip. Elev Updated Type